Time;durP1;ratioP1;P1;durP2;ratioP2;P2;SDS_P1;SDS_P2;PMS_P1;PMS_P2;Temp;Humidity;BMP_temperature;BMP_pressure;BME280_temperature;BME280_humidity;BME280_pressure;Samples;Min_cycle;Max_cycle;Signal;HPM_P1;HPM_P2
2021/11/08 00:02:10;;;;;;;10.32;2.70;;;8.70;99.90;;;;;;5026831;28;20075;-51
2021/11/08 00:04:36;;;;;;;17.80;3.63;;;8.70;99.90;;;;;;5027674;28;20079;-52
2021/11/08 00:07:03;;;;;;;14.02;2.75;;;8.70;99.90;;;;;;5026379;28;20033;-53
2021/11/08 00:09:29;;;;;;;17.55;3.15;;;8.70;99.90;;;;;;5024533;28;20029;-52
2021/11/08 00:11:55;;;;;;;17.45;3.78;;;8.70;99.90;;;;;;5024542;28;20557;-56
2021/11/08 00:14:22;;;;;;;13.25;3.30;;;8.70;99.90;;;;;;5026188;28;20033;-53
2021/11/08 00:21:49;;;;;;;22.77;3.65;;;8.70;99.90;;;;;;5025565;28;20087;-52
2021/11/08 00:24:21;;;;;;;16.42;3.15;;;8.70;99.90;;;;;;5027433;28;20049;-53
2021/11/08 00:26:47;;;;;;;11.52;2.20;;;8.70;99.90;;;;;;5023383;28;20028;-50
2021/11/08 00:29:12;;;;;;;24.80;3.72;;;8.70;99.90;;;;;;5027525;28;20025;-51
2021/11/08 00:31:38;;;;;;;18.63;3.28;;;8.70;99.90;;;;;;5026763;28;20017;-53
2021/11/08 00:34:03;;;;;;;13.38;3.47;;;8.70;99.90;;;;;;5026726;28;20034;-51
2021/11/08 00:36:30;;;;;;;14.25;2.92;;;8.70;99.90;;;;;;5025827;28;20041;-52
2021/11/08 00:38:56;;;;;;;13.65;3.40;;;8.70;99.90;;;;;;5023217;28;20117;-53
2021/11/08 00:41:22;;;;;;;12.85;3.38;;;8.60;99.90;;;;;;5026432;28;20033;-50
2021/11/08 00:43:47;;;;;;;11.07;3.45;;;8.60;99.90;;;;;;5026692;28;20423;-52
2021/11/08 00:46:13;;;;;;;20.38;2.85;;;8.60;99.90;;;;;;5025731;28;20026;-55
2021/11/08 00:48:39;;;;;;;17.88;3.85;;;8.60;99.90;;;;;;5025957;28;20446;-51
2021/11/08 00:51:05;;;;;;;9.77;2.80;;;8.60;99.90;;;;;;5026184;28;20025;-53
2021/11/08 00:53:31;;;;;;;12.38;3.50;;;8.50;99.90;;;;;;5025304;28;20550;-52
2021/11/08 00:56:03;;;;;;;15.80;2.92;;;8.50;99.90;;;;;;5025338;28;20487;-54
2021/11/08 00:58:34;;;;;;;9.73;2.85;;;8.50;99.90;;;;;;5023679;28;20080;-53
2021/11/08 01:01:06;;;;;;;15.82;2.83;;;8.50;99.90;;;;;;5025519;28;20036;-51
2021/11/08 01:03:34;;;;;;;12.80;2.70;;;8.50;99.90;;;;;;5025144;28;20022;-54
2021/11/08 01:06:00;;;;;;;24.20;3.78;;;8.50;99.90;;;;;;5023312;28;20029;-53
2021/11/08 01:08:26;;;;;;;10.60;2.70;;;8.50;99.90;;;;;;5023526;28;20021;-52
2021/11/08 01:10:51;;;;;;;9.63;3.30;;;8.50;99.90;;;;;;5025149;28;20022;-53
2021/11/08 01:13:17;;;;;;;15.75;2.47;;;8.60;99.90;;;;;;5025503;28;20168;-53
2021/11/08 01:15:43;;;;;;;17.15;3.30;;;8.60;99.90;;;;;;5026933;28;20048;-51
2021/11/08 01:18:09;;;;;;;12.20;2.30;;;8.50;99.90;;;;;;5024541;28;20033;-50
2021/11/08 01:20:35;;;;;;;14.65;3.17;;;8.50;99.90;;;;;;5019997;28;20159;-53
2021/11/08 01:23:04;;;;;;;23.85;3.80;;;8.50;99.90;;;;;;5025886;28;20022;-53
2021/11/08 01:25:33;;;;;;;11.23;2.50;;;8.50;99.90;;;;;;5025902;28;20121;-55
2021/11/08 01:28:01;;;;;;;16.13;2.20;;;8.40;99.90;;;;;;5026047;28;20018;-51
2021/11/08 01:30:28;;;;;;;11.43;2.35;;;8.40;99.90;;;;;;5023189;28;20041;-53
2021/11/08 01:33:02;;;;;;;14.02;2.60;;;8.40;99.90;;;;;;5025912;28;20036;-52
2021/11/08 01:35:56;;;;;;;11.27;2.50;;;8.40;99.90;;;;;;5025721;28;20037;-52
2021/11/08 01:38:26;;;;;;;9.05;2.42;;;8.30;99.90;;;;;;5025902;28;20433;-51
2021/11/08 01:40:52;;;;;;;7.60;1.85;;;8.30;99.90;;;;;;5024419;28;20040;-53
2021/11/08 01:43:20;;;;;;;14.45;2.50;;;8.20;99.90;;;;;;5024189;28;20037;-52
2021/11/08 01:45:46;;;;;;;12.05;2.17;;;8.20;99.90;;;;;;5022885;28;20436;-53
2021/11/08 01:48:12;;;;;;;9.55;1.92;;;8.20;99.90;;;;;;5023456;28;20044;-51
2021/11/08 01:50:39;;;;;;;10.40;2.08;;;8.20;99.90;;;;;;5024843;28;20033;-55
2021/11/08 01:53:05;;;;;;;18.42;3.13;;;8.20;99.90;;;;;;5024334;28;20068;-50
2021/11/08 01:55:32;;;;;;;11.35;2.70;;;8.20;99.90;;;;;;5025306;28;20030;-51
2021/11/08 01:57:57;;;;;;;14.68;2.08;;;8.20;99.90;;;;;;5021788;28;20121;-54
2021/11/08 02:00:24;;;;;;;14.88;3.10;;;8.20;99.90;;;;;;5023252;28;20546;-54
2021/11/08 02:02:50;;;;;;;16.48;2.33;;;8.20;99.90;;;;;;5024258;28;20053;-50
2021/11/08 02:05:16;;;;;;;13.35;2.22;;;8.20;99.90;;;;;;5025551;28;20030;-52
2021/11/08 02:07:45;;;;;;;8.00;1.95;;;8.20;99.90;;;;;;5026221;28;20502;-52
2021/11/08 02:10:13;;;;;;;14.30;2.40;;;8.10;99.90;;;;;;5024437;28;20029;-51
2021/11/08 02:12:39;;;;;;;10.27;1.88;;;8.10;99.90;;;;;;5025399;28;20044;-50
2021/11/08 02:15:11;;;;;;;12.98;2.00;;;8.10;99.90;;;;;;5022740;28;20041;-52
2021/11/08 02:17:37;;;;;;;15.40;2.78;;;8.10;99.90;;;;;;5026513;28;20056;-53
2021/11/08 02:20:21;;;;;;;9.75;2.42;;;8.10;99.90;;;;;;5030074;28;20104;-53
2021/11/08 02:22:50;;;;;;;9.75;1.98;;;8.10;99.90;;;;;;5028093;28;20057;-54
2021/11/08 02:25:21;;;;;;;15.88;2.80;;;8.10;99.90;;;;;;5026817;28;20040;-54
2021/11/08 02:27:48;;;;;;;11.35;2.75;;;8.00;99.90;;;;;;5028925;28;20056;-52
2021/11/08 02:30:15;;;;;;;11.88;2.25;;;8.00;99.90;;;;;;5029007;28;20515;-50
2021/11/08 02:32:41;;;;;;;14.30;2.13;;;8.10;99.90;;;;;;5027454;28;20495;-49
2021/11/08 02:35:10;;;;;;;12.40;2.45;;;8.10;99.90;;;;;;5027334;28;20046;-53
2021/11/08 02:37:36;;;;;;;7.72;2.53;;;8.10;99.90;;;;;;5027487;28;20033;-51
2021/11/08 02:40:03;;;;;;;13.25;3.05;;;8.10;99.90;;;;;;5025280;28;20487;-50
2021/11/08 02:42:29;;;;;;;10.85;2.70;;;8.20;99.90;;;;;;5025828;28;20044;-51
2021/11/08 02:44:56;;;;;;;11.77;2.97;;;8.20;99.90;;;;;;5027889;28;20037;-53
2021/11/08 02:47:22;;;;;;;10.30;2.53;;;8.20;99.90;;;;;;5025928;28;20539;-53
2021/11/08 02:49:50;;;;;;;11.57;2.88;;;8.20;99.90;;;;;;5026792;28;20034;-51
2021/11/08 02:52:20;;;;;;;14.25;2.60;;;8.10;99.90;;;;;;5027581;28;20083;-53
2021/11/08 02:54:51;;;;;;;11.32;3.28;;;8.10;99.90;;;;;;5029474;28;20621;-48
2021/11/08 02:57:19;;;;;;;11.82;2.53;;;8.00;99.90;;;;;;5027632;28;20041;-51
2021/11/08 02:59:46;;;;;;;13.30;3.00;;;8.00;99.90;;;;;;5028164;28;20018;-49
2021/11/08 03:02:14;;;;;;;11.43;2.72;;;8.00;99.90;;;;;;5029575;28;20492;-51
2021/11/08 03:04:43;;;;;;;10.13;2.03;;;7.90;99.90;;;;;;5028414;28;20395;-53
2021/11/08 03:07:10;;;;;;;10.82;2.42;;;7.90;99.90;;;;;;5027965;28;20030;-51
2021/11/08 03:09:40;;;;;;;15.02;2.45;;;7.90;99.90;;;;;;5025915;28;20033;-53
2021/11/08 03:12:12;;;;;;;7.28;2.10;;;7.90;99.90;;;;;;5027359;28;20040;-49
2021/11/08 03:14:59;;;;;;;10.23;1.65;;;7.90;99.90;;;;;;5028570;28;20052;-50
2021/11/08 03:17:30;;;;;;;8.80;1.75;;;7.90;99.90;;;;;;5028627;28;20034;-49
2021/11/08 03:19:56;;;;;;;8.30;2.15;;;7.90;99.90;;;;;;5027836;28;20525;-51
2021/11/08 03:22:26;;;;;;;7.78;2.05;;;7.90;99.90;;;;;;5027531;28;20391;-52
2021/11/08 03:25:07;;;;;;;6.65;1.73;;;8.00;99.90;;;;;;5027793;28;20029;-49
2021/11/08 03:27:50;;;;;;;4.40;1.17;;;8.00;99.90;;;;;;5027232;28;20049;-49
2021/11/08 03:30:20;;;;;;;5.55;1.73;;;8.00;99.90;;;;;;5027373;28;20025;-51
2021/11/08 03:32:47;;;;;;;10.05;2.42;;;8.10;99.90;;;;;;5027212;28;20022;-50
2021/11/08 03:35:14;;;;;;;8.25;2.10;;;8.10;99.90;;;;;;5026325;28;20108;-52
2021/11/08 03:37:43;;;;;;;3.92;1.48;;;8.10;99.90;;;;;;5025487;28;20613;-49
2021/11/08 03:40:13;;;;;;;11.18;1.40;;;8.10;99.90;;;;;;5026274;28;20108;-50
2021/11/08 03:42:39;;;;;;;8.45;2.20;;;8.10;99.90;;;;;;5026672;28;20036;-53
2021/11/08 03:45:06;;;;;;;7.93;1.98;;;8.10;99.90;;;;;;5026936;28;20025;-51
2021/11/08 03:47:32;;;;;;;8.88;1.45;;;8.10;99.90;;;;;;5026256;28;20026;-56
2021/11/08 03:49:58;;;;;;;10.00;2.30;;;8.10;99.90;;;;;;5028754;28;20036;-52
2021/11/08 03:52:24;;;;;;;7.65;2.25;;;8.20;99.90;;;;;;5024082;28;20030;-55
2021/11/08 03:54:49;;;;;;;8.65;2.00;;;8.20;99.90;;;;;;5027169;28;20510;-50
2021/11/08 03:57:15;;;;;;;9.98;2.63;;;8.20;99.90;;;;;;5027147;28;20029;-53
2021/11/08 03:59:41;;;;;;;9.55;2.75;;;8.20;99.90;;;;;;5028913;28;20025;-51
2021/11/08 04:02:07;;;;;;;8.45;2.28;;;8.20;99.90;;;;;;5028010;28;20040;-53
2021/11/08 04:04:32;;;;;;;8.43;3.10;;;8.30;99.90;;;;;;5026518;28;20021;-50
2021/11/08 04:06:58;;;;;;;8.60;2.97;;;8.30;99.90;;;;;;5027444;28;20172;-51
2021/11/08 04:09:25;;;;;;;9.60;2.78;;;8.30;99.90;;;;;;5026441;28;20080;-50
2021/11/08 04:11:51;;;;;;;6.75;2.13;;;8.30;99.90;;;;;;5026531;28;20112;-51
2021/11/08 04:14:18;;;;;;;4.07;2.10;;;8.20;99.90;;;;;;5027319;28;20101;-51
2021/11/08 04:16:44;;;;;;;7.28;2.13;;;8.20;99.90;;;;;;5026851;28;20025;-53
2021/11/08 04:19:11;;;;;;;6.07;2.72;;;8.20;99.90;;;;;;5027467;28;20541;-51
2021/11/08 04:21:38;;;;;;;7.65;2.45;;;8.20;99.90;;;;;;5026492;28;20029;-50
2021/11/08 04:24:05;;;;;;;6.70;2.30;;;8.20;99.90;;;;;;5025852;28;20529;-51
2021/11/08 04:26:33;;;;;;;7.63;2.60;;;8.20;99.90;;;;;;5025998;28;20030;-51
2021/11/08 04:29:03;;;;;;;6.50;2.25;;;8.20;99.90;;;;;;5026270;28;20392;-50
2021/11/08 04:31:33;;;;;;;8.20;3.78;;;8.20;99.90;;;;;;5025184;28;20029;-51
2021/11/08 04:34:06;;;;;;;7.70;3.20;;;8.20;99.90;;;;;;5023306;28;20072;-52
2021/11/08 04:39:30;;;;;;;5.75;2.30;;;8.20;99.90;;;;;;5024538;28;20600;-52
2021/11/08 04:49:53;;;;;;;11.60;3.33;;;8.20;99.90;;;;;;5026910;28;20163;-52
2021/11/08 05:22:03;;;;;;;10.90;4.20;;;8.00;99.90;;;;;;5025655;28;20053;-53
2021/11/08 05:29:56;;;;;;;9.55;3.38;;;7.90;99.90;;;;;;5024672;28;20518;-54
2021/11/08 05:32:24;;;;;;;6.05;3.15;;;8.00;99.90;;;;;;5025391;28;20033;-52
2021/11/08 05:34:51;;;;;;;8.43;3.80;;;7.90;99.90;;;;;;5024756;28;20033;-56
2021/11/08 05:37:16;;;;;;;9.02;4.07;;;7.90;99.90;;;;;;5025153;28;20036;-53
2021/11/08 05:39:52;;;;;;;17.45;4.55;;;7.90;99.90;;;;;;5024384;28;20582;-51
2021/11/08 05:42:19;;;;;;;15.40;4.25;;;7.90;99.90;;;;;;5025770;28;20037;-51
2021/11/08 05:44:45;;;;;;;15.48;4.40;;;7.90;99.90;;;;;;5023495;28;20129;-57
2021/11/08 05:47:11;;;;;;;10.35;3.70;;;7.90;99.90;;;;;;5025877;28;20026;-51
2021/11/08 05:49:37;;;;;;;23.02;4.15;;;7.90;99.90;;;;;;5025952;28;20026;-51
2021/11/08 05:52:04;;;;;;;10.20;3.03;;;7.90;99.90;;;;;;5026203;28;20109;-53
2021/11/08 05:54:30;;;;;;;12.20;3.97;;;7.90;99.90;;;;;;5028693;28;20041;-52
2021/11/08 06:51:24;;;;;;;9.35;2.47;;;7.60;99.90;;;;;;5028316;28;20495;-55
2021/11/08 06:53:54;;;;;;;12.57;2.50;;;7.50;99.90;;;;;;5027563;28;20105;-54
2021/11/08 06:56:25;;;;;;;13.25;2.60;;;7.60;99.90;;;;;;5026689;28;20033;-52
2021/11/08 06:58:51;;;;;;;11.93;1.48;;;7.50;99.90;;;;;;5027371;28;20026;-54
2021/11/08 07:01:16;;;;;;;11.60;3.10;;;7.50;99.90;;;;;;5026458;28;20030;-51
2021/11/08 07:03:42;;;;;;;10.18;2.05;;;7.50;99.90;;;;;;5026679;28;20030;-53
2021/11/08 07:06:08;;;;;;;7.75;2.08;;;7.50;99.90;;;;;;5028356;28;20521;-53
2021/11/08 07:08:33;;;;;;;7.03;1.75;;;7.40;99.90;;;;;;5025700;28;20025;-55
2021/11/08 07:10:59;;;;;;;7.30;2.22;;;7.40;99.90;;;;;;5027206;28;20033;-55
2021/11/08 07:13:24;;;;;;;6.55;1.67;;;7.40;99.90;;;;;;5028590;28;20483;-54
2021/11/08 07:15:50;;;;;;;9.30;2.78;;;7.50;99.90;;;;;;5029056;28;20087;-50
2021/11/08 07:18:17;;;;;;;10.93;2.35;;;7.50;99.90;;;;;;5029210;28;20030;-54
2021/11/08 07:20:43;;;;;;;7.43;1.92;;;7.40;99.90;;;;;;5028092;28;20052;-54
2021/11/08 07:23:09;;;;;;;8.98;2.78;;;7.40;99.90;;;;;;5026194;28;20072;-52
2021/11/08 07:25:35;;;;;;;7.57;2.05;;;7.30;99.90;;;;;;5027919;28;20021;-51
2021/11/08 07:28:04;;;;;;;7.97;1.90;;;7.30;99.90;;;;;;5025422;28;20365;-53
2021/11/08 07:30:30;;;;;;;7.90;1.58;;;7.30;99.90;;;;;;5026483;28;20022;-53
2021/11/08 07:32:56;;;;;;;9.15;2.17;;;7.30;99.90;;;;;;5025878;28;20022;-50
2021/11/08 07:35:21;;;;;;;7.82;2.13;;;7.30;99.90;;;;;;5027500;28;20080;-53
2021/11/08 07:37:47;;;;;;;8.68;2.30;;;7.30;99.90;;;;;;5026207;28;20084;-52
2021/11/08 07:40:13;;;;;;;11.70;2.70;;;7.30;99.90;;;;;;5026288;28;20029;-50
2021/11/08 07:42:41;;;;;;;13.00;2.08;;;7.30;99.90;;;;;;5010488;28;20120;-50
2021/11/08 07:45:08;;;;;;;9.73;2.33;;;7.30;99.90;;;;;;5027092;28;20107;-50
2021/11/08 07:47:34;;;;;;;6.57;1.50;;;7.30;99.90;;;;;;5027167;28;20043;-49
2021/11/08 07:49:59;;;;;;;11.98;2.33;;;7.40;99.90;;;;;;5027935;28;20471;-50
2021/11/08 07:52:25;;;;;;;10.02;2.03;;;7.40;99.90;;;;;;5027821;28;20029;-50
2021/11/08 07:54:50;;;;;;;11.98;2.20;;;7.40;99.90;;;;;;5027521;28;20087;-51
2021/11/08 07:57:16;;;;;;;4.90;2.05;;;7.50;99.90;;;;;;5025652;28;20129;-52
2021/11/08 07:59:42;;;;;;;11.15;2.15;;;7.50;99.90;;;;;;5026364;28;20116;-51
2021/11/08 08:02:08;;;;;;;5.82;1.70;;;7.50;99.90;;;;;;5027369;28;20041;-52
2021/11/08 08:04:34;;;;;;;15.82;2.58;;;7.60;99.90;;;;;;5026529;28;20025;-51
2021/11/08 08:06:59;;;;;;;6.40;1.92;;;7.70;99.90;;;;;;5025572;28;20389;-50
2021/11/08 08:09:25;;;;;;;6.55;1.67;;;7.80;99.90;;;;;;5025267;28;20041;-51
2021/11/08 08:11:51;;;;;;;7.05;2.40;;;7.80;99.90;;;;;;5028354;28;20056;-54
2021/11/08 08:14:17;;;;;;;8.85;2.17;;;7.90;99.90;;;;;;5027427;28;20051;-51
2021/11/08 08:16:42;;;;;;;10.48;2.33;;;7.90;99.90;;;;;;5028209;28;20036;-52
2021/11/08 08:19:08;;;;;;;10.57;2.38;;;7.90;99.90;;;;;;5027150;28;20041;-52
2021/11/08 08:21:34;;;;;;;6.57;2.22;;;7.90;99.90;;;;;;5027946;28;20083;-50
2021/11/08 08:24:02;;;;;;;7.47;1.90;;;7.90;99.90;;;;;;5025773;28;20037;-51
2021/11/08 08:26:39;;;;;;;10.18;2.47;;;7.90;99.90;;;;;;5025867;28;20034;-50
2021/11/08 08:29:09;;;;;;;8.88;1.98;;;7.90;99.90;;;;;;5026454;28;20025;-50
2021/11/08 08:31:38;;;;;;;9.50;2.30;;;7.90;99.90;;;;;;5027249;28;20457;-50
2021/11/08 08:34:05;;;;;;;9.48;1.95;;;8.00;99.90;;;;;;5025769;28;20096;-50
2021/11/08 08:36:30;;;;;;;9.40;1.63;;;8.00;99.90;;;;;;5025156;28;20029;-53
2021/11/08 08:38:56;;;;;;;7.88;1.33;;;8.00;99.90;;;;;;5025745;28;20025;-53
2021/11/08 08:41:22;;;;;;;6.82;1.92;;;8.10;99.90;;;;;;5026593;28;20111;-52
2021/11/08 08:43:48;;;;;;;7.72;2.55;;;8.10;99.90;;;;;;5025818;28;20033;-52
2021/11/08 08:46:15;;;;;;;8.43;2.42;;;8.10;99.90;;;;;;5025934;28;20033;-54
2021/11/08 08:48:42;;;;;;;8.15;2.25;;;8.10;99.90;;;;;;5023527;28;20103;-51
2021/11/08 08:51:08;;;;;;;9.90;3.13;;;8.00;99.90;;;;;;5023733;28;20048;-50
2021/11/08 08:53:36;;;;;;;10.70;2.15;;;8.10;99.90;;;;;;5024632;28;20387;-50
2021/11/08 08:56:02;;;;;;;9.18;2.40;;;8.10;99.90;;;;;;5026689;28;20017;-49
2021/11/08 08:58:30;;;;;;;8.30;2.35;;;8.10;99.90;;;;;;5024789;28;20036;-52
2021/11/08 09:00:56;;;;;;;6.63;1.73;;;8.20;99.90;;;;;;5025851;28;20029;-50
2021/11/08 09:03:22;;;;;;;8.23;1.83;;;8.20;99.90;;;;;;5026318;28;20028;-51
2021/11/08 09:05:49;;;;;;;8.32;1.90;;;8.20;99.90;;;;;;5026013;28;20029;-50
2021/11/08 09:08:16;;;;;;;8.75;2.03;;;8.20;99.90;;;;;;5024971;28;20044;-50
2021/11/08 09:10:42;;;;;;;4.63;2.30;;;8.20;99.90;;;;;;5025773;28;20017;-50
2021/11/08 09:13:08;;;;;;;5.32;2.42;;;8.20;99.90;;;;;;5022856;28;20030;-52
2021/11/08 09:15:35;;;;;;;13.82;2.05;;;8.30;99.90;;;;;;5024414;28;20044;-50
2021/11/08 09:18:03;;;;;;;11.43;3.17;;;8.30;99.90;;;;;;5021930;28;20029;-52
2021/11/08 09:20:30;;;;;;;9.82;2.53;;;8.30;99.90;;;;;;5021750;28;20054;-56
2021/11/08 09:22:56;;;;;;;7.90;2.03;;;8.40;99.90;;;;;;5018433;28;20064;-54
2021/11/08 09:25:23;;;;;;;8.55;2.15;;;8.40;99.90;;;;;;5020259;28;20488;-55
2021/11/08 09:27:52;;;;;;;4.82;1.73;;;8.40;99.90;;;;;;5021212;28;20028;-55
2021/11/08 09:30:23;;;;;;;9.20;1.88;;;8.50;99.90;;;;;;5022316;28;20549;-52
2021/11/08 09:32:49;;;;;;;5.57;1.40;;;8.50;99.90;;;;;;5024184;28;20022;-50
2021/11/08 09:35:15;;;;;;;11.02;2.00;;;8.60;99.90;;;;;;5025099;28;20450;-51
2021/11/08 09:37:44;;;;;;;11.32;2.40;;;8.70;99.90;;;;;;5023451;28;20053;-53
2021/11/08 09:40:20;;;;;;;8.90;1.60;;;8.70;99.90;;;;;;5025213;28;20037;-50
2021/11/08 09:42:47;;;;;;;7.35;2.03;;;8.70;99.90;;;;;;5024834;28;20025;-53
2021/11/08 09:45:14;;;;;;;12.25;2.60;;;8.80;99.90;;;;;;5021846;28;20048;-53
2021/11/08 09:47:41;;;;;;;8.73;2.05;;;8.90;99.90;;;;;;5024336;28;20021;-55
2021/11/08 09:50:10;;;;;;;10.50;1.95;;;8.90;99.90;;;;;;5022404;28;20508;-53
2021/11/08 09:52:42;;;;;;;9.35;2.20;;;8.80;99.90;;;;;;5024088;28;20030;-52
2021/11/08 09:55:13;;;;;;;5.45;1.88;;;8.80;99.90;;;;;;5025473;28;20554;-52
2021/11/08 09:57:39;;;;;;;6.72;1.70;;;8.90;99.90;;;;;;5024190;28;20033;-50
2021/11/08 10:00:25;;;;;;;6.40;2.20;;;8.80;99.90;;;;;;5026125;28;20035;-53
2021/11/08 10:02:58;;;;;;;6.43;1.60;;;8.80;99.90;;;;;;5024686;28;20396;-53
2021/11/08 10:05:27;;;;;;;9.98;2.35;;;8.90;99.90;;;;;;5024464;28;20026;-55
2021/11/08 10:07:53;;;;;;;5.13;1.35;;;8.80;99.90;;;;;;5025671;28;20464;-52
2021/11/08 10:10:20;;;;;;;9.43;2.10;;;8.80;99.90;;;;;;5026822;28;20438;-54
2021/11/08 10:12:49;;;;;;;7.35;1.73;;;8.80;99.90;;;;;;5025143;28;20021;-52
2021/11/08 10:15:18;;;;;;;5.07;1.52;;;8.80;99.90;;;;;;5025105;28;20731;-51
2021/11/08 10:17:43;;;;;;;7.80;1.60;;;8.80;99.90;;;;;;5025342;28;20022;-52
2021/11/08 10:20:09;;;;;;;3.85;1.25;;;8.80;99.90;;;;;;5025126;28;20025;-56
2021/11/08 10:22:35;;;;;;;6.07;1.83;;;8.80;99.90;;;;;;5022892;28;20500;-53
2021/11/08 10:25:03;;;;;;;8.43;2.38;;;8.80;99.90;;;;;;5023559;28;20060;-56
2021/11/08 10:27:42;;;;;;;6.25;1.80;;;8.80;99.90;;;;;;5023530;28;20022;-54
2021/11/08 10:30:08;;;;;;;9.70;2.53;;;8.80;99.90;;;;;;5025126;28;20083;-53
2021/11/08 10:32:34;;;;;;;6.35;1.60;;;8.80;99.90;;;;;;5024156;28;20105;-53
2021/11/08 10:34:59;;;;;;;9.75;1.63;;;8.80;99.90;;;;;;5026199;28;20112;-52
2021/11/08 10:37:31;;;;;;;11.10;2.30;;;8.80;99.90;;;;;;5023756;28;20160;-54
2021/11/08 10:39:58;;;;;;;4.50;1.48;;;8.80;99.90;;;;;;5026769;28;20029;-52
2021/11/08 10:42:31;;;;;;;5.57;2.00;;;8.80;99.90;;;;;;5026576;28;20699;-55
2021/11/08 10:45:01;;;;;;;7.43;2.75;;;8.80;99.90;;;;;;5028600;28;20056;-53
2021/11/08 10:47:28;;;;;;;8.98;2.33;;;8.80;99.90;;;;;;5025890;28;20025;-54
2021/11/08 10:49:56;;;;;;;3.85;1.70;;;8.80;99.90;;;;;;5028437;28;20503;-51
2021/11/08 10:52:28;;;;;;;4.47;2.15;;;8.80;99.90;;;;;;5027555;28;20047;-53
2021/11/08 10:54:57;;;;;;;9.82;2.97;;;8.90;99.90;;;;;;5027639;28;20032;-55
2021/11/08 10:57:25;;;;;;;9.48;2.40;;;8.90;99.90;;;;;;5028394;28;20025;-51
2021/11/08 10:59:54;;;;;;;7.93;3.13;;;8.90;99.90;;;;;;5028522;28;20064;-54
2021/11/08 11:02:26;;;;;;;7.75;2.05;;;8.90;99.90;;;;;;5026197;28;20113;-52
2021/11/08 11:04:58;;;;;;;7.75;2.53;;;8.90;99.90;;;;;;5028206;28;20017;-55
2021/11/08 11:07:26;;;;;;;11.55;3.10;;;8.90;99.90;;;;;;5026963;28;20037;-55
2021/11/08 11:10:00;;;;;;;7.78;1.63;;;8.90;99.90;;;;;;5028224;28;20018;-52
2021/11/08 11:12:26;;;;;;;11.98;2.42;;;9.00;99.90;;;;;;5027750;28;20095;-53
2021/11/08 11:15:03;;;;;;;9.13;2.05;;;8.90;99.90;;;;;;5028265;28;20025;-51
2021/11/08 11:17:31;;;;;;;5.57;2.20;;;8.90;99.90;;;;;;5027753;28;20030;-54
2021/11/08 11:20:17;;;;;;;8.05;2.30;;;9.00;99.90;;;;;;5027686;28;20083;-54
2021/11/08 11:22:50;;;;;;;10.50;2.60;;;9.00;99.90;;;;;;5028263;28;20095;-55
2021/11/08 11:25:21;;;;;;;9.73;2.75;;;9.00;99.90;;;;;;5027667;28;20434;-55
2021/11/08 11:27:50;;;;;;;8.15;1.90;;;9.00;99.90;;;;;;5027693;28;20104;-51
2021/11/08 11:30:23;;;;;;;11.70;2.22;;;9.00;99.90;;;;;;5026723;28;20052;-51
2021/11/08 11:33:04;;;;;;;8.35;2.35;;;9.00;99.90;;;;;;5024142;28;20398;-55
2021/11/08 11:35:39;;;;;;;7.22;2.53;;;9.00;99.90;;;;;;5022006;28;20026;-54
2021/11/08 11:38:09;;;;;;;5.25;2.13;;;9.00;99.90;;;;;;5026470;28;20041;-52
2021/11/08 11:40:41;;;;;;;9.57;2.17;;;9.00;99.90;;;;;;5026428;28;20573;-53
2021/11/08 11:43:11;;;;;;;8.13;2.85;;;9.10;99.90;;;;;;5028170;28;20083;-54
2021/11/08 11:45:54;;;;;;;8.55;1.88;;;9.10;99.90;;;;;;5028437;28;20018;-54
2021/11/08 11:48:23;;;;;;;8.18;1.95;;;9.10;99.90;;;;;;5025864;28;20091;-54
2021/11/08 11:50:49;;;;;;;13.68;2.58;;;9.10;99.90;;;;;;5026863;28;20025;-55
2021/11/08 11:53:15;;;;;;;7.03;1.90;;;9.10;99.90;;;;;;5024361;28;20026;-53
2021/11/08 11:55:44;;;;;;;9.73;2.00;;;9.10;99.90;;;;;;5027190;28;20083;-55
2021/11/08 11:58:10;;;;;;;5.60;2.20;;;9.10;99.90;;;;;;5025919;28;20479;-54
2021/11/08 12:00:39;;;;;;;10.40;3.25;;;9.10;99.90;;;;;;5028116;28;20067;-57
2021/11/08 12:03:06;;;;;;;4.78;1.83;;;9.10;99.90;;;;;;5028004;28;20036;-56
2021/11/08 12:05:34;;;;;;;4.18;1.35;;;9.10;99.90;;;;;;5026208;28;20036;-53
2021/11/08 12:08:04;;;;;;;8.70;1.92;;;9.10;99.90;;;;;;5027943;28;20518;-54
2021/11/08 12:10:30;;;;;;;5.63;1.75;;;9.10;99.90;;;;;;5027281;28;20080;-51
2021/11/08 12:12:56;;;;;;;4.28;1.85;;;9.10;99.90;;;;;;5027631;28;20048;-53
2021/11/08 12:15:30;;;;;;;4.50;2.30;;;9.10;99.90;;;;;;5026913;28;20653;-54
2021/11/08 12:18:08;;;;;;;5.75;2.10;;;9.10;99.90;;;;;;5026660;28;20029;-51
2021/11/08 12:20:48;;;;;;;7.60;2.30;;;9.10;99.90;;;;;;5026943;28;20028;-52
2021/11/08 12:23:18;;;;;;;3.05;1.33;;;9.10;99.90;;;;;;5025434;28;20017;-53
2021/11/08 12:25:45;;;;;;;6.22;2.25;;;9.10;99.90;;;;;;5026071;28;20017;-52
2021/11/08 12:28:14;;;;;;;5.22;1.60;;;9.10;99.90;;;;;;5026381;28;20052;-53
2021/11/08 12:30:44;;;;;;;4.43;2.38;;;9.10;99.90;;;;;;5026229;28;20121;-54
2021/11/08 12:33:34;;;;;;;7.95;2.45;;;9.10;99.90;;;;;;5026105;28;20061;-55
2021/11/08 12:36:14;;;;;;;8.95;2.05;;;9.10;99.90;;;;;;5026315;28;20033;-54
2021/11/08 12:39:06;;;;;;;10.20;1.92;;;9.10;99.90;;;;;;5026684;28;20517;-54
2021/11/08 12:41:34;;;;;;;6.13;2.20;;;9.20;99.90;;;;;;5024298;28;20033;-50
2021/11/08 12:44:07;;;;;;;4.00;1.83;;;9.10;99.90;;;;;;5025864;28;20033;-54
2021/11/08 12:46:39;;;;;;;3.85;1.60;;;9.10;99.90;;;;;;5025940;28;20040;-49
2021/11/08 12:49:27;;;;;;;5.68;1.35;;;9.20;99.90;;;;;;5027276;28;20021;-50
2021/11/08 12:52:00;;;;;;;7.03;1.70;;;9.10;99.90;;;;;;5025001;28;20826;-53
2021/11/08 12:54:30;;;;;;;9.63;2.33;;;9.10;99.90;;;;;;5025668;28;20037;-57
2021/11/08 12:57:07;;;;;;;8.88;3.90;;;9.10;99.90;;;;;;5026565;28;20045;-56
2021/11/08 12:59:47;;;;;;;2.88;1.85;;;9.10;99.90;;;;;;5025851;28;20032;-50
2021/11/08 13:02:40;;;;;;;6.80;2.63;;;9.20;99.90;;;;;;5023412;28;20495;-53
2021/11/08 13:05:09;;;;;;;3.10;1.45;;;9.20;99.90;;;;;;5026402;28;20037;-55
2021/11/08 13:07:38;;;;;;;3.88;1.58;;;9.20;99.90;;;;;;5024106;28;20112;-51
2021/11/08 13:10:19;;;;;;;7.65;1.58;;;9.20;99.90;;;;;;5025776;28;20049;-51
2021/11/08 13:12:45;;;;;;;4.97;1.52;;;9.20;99.90;;;;;;5025032;28;20025;-52
2021/11/08 13:15:21;;;;;;;1.70;1.38;;;9.20;99.90;;;;;;5025288;28;20521;-54
2021/11/08 13:17:53;;;;;;;4.53;1.50;;;9.20;99.90;;;;;;5027448;28;20029;-56
2021/11/08 13:20:22;;;;;;;4.35;1.40;;;9.30;99.90;;;;;;5025693;28;20506;-55
2021/11/08 13:22:52;;;;;;;2.75;1.83;;;9.30;99.90;;;;;;5025631;28;20034;-57
2021/11/08 13:25:24;;;;;;;2.10;1.30;;;9.30;99.90;;;;;;5026552;28;20112;-55
2021/11/08 13:27:53;;;;;;;3.13;1.50;;;9.30;99.90;;;;;;5024274;28;20117;-54
2021/11/08 13:30:29;;;;;;;2.53;1.65;;;9.40;99.90;;;;;;5027257;28;20029;-54
2021/11/08 13:32:54;;;;;;;5.10;2.13;;;9.40;99.90;;;;;;5025593;28;20549;-57
2021/11/08 13:35:26;;;;;;;4.35;2.10;;;9.30;99.90;;;;;;5026673;28;20040;-56
2021/11/08 13:38:12;;;;;;;2.70;1.70;;;9.30;99.90;;;;;;5023832;28;20029;-53
2021/11/08 13:40:43;;;;;;;3.30;1.60;;;9.30;99.90;;;;;;5026271;28;20045;-52
2021/11/08 13:43:20;;;;;;;1.88;1.05;;;9.30;99.90;;;;;;5025026;28;20079;-54
2021/11/08 13:45:52;;;;;;;2.63;1.50;;;9.30;99.90;;;;;;5024952;28;20034;-56
2021/11/08 13:48:22;;;;;;;2.25;1.13;;;9.30;99.90;;;;;;5025318;28;20029;-54
2021/11/08 13:50:48;;;;;;;2.38;1.13;;;9.30;99.90;;;;;;5024703;28;20380;-55
2021/11/08 13:53:21;;;;;;;1.63;1.13;;;9.30;99.90;;;;;;5025850;28;20063;-53
2021/11/08 13:55:48;;;;;;;1.33;1.23;;;9.30;99.90;;;;;;5024033;28;20030;-52
2021/11/08 13:58:18;;;;;;;1.83;1.15;;;9.30;99.90;;;;;;5023045;28;20462;-54
2021/11/08 14:00:44;;;;;;;2.00;1.30;;;9.30;99.90;;;;;;5023333;28;20045;-51
2021/11/08 14:03:15;;;;;;;2.08;1.20;;;9.40;99.90;;;;;;5024101;28;20450;-52
2021/11/08 14:05:51;;;;;;;2.40;1.50;;;9.40;99.90;;;;;;5024459;28;20410;-54
2021/11/08 14:08:24;;;;;;;2.95;1.33;;;9.40;99.90;;;;;;5025056;28;20032;-54
2021/11/08 14:10:58;;;;;;;2.70;1.45;;;9.40;99.90;;;;;;5025216;28;20025;-55
2021/11/08 14:13:38;;;;;;;3.05;1.73;;;9.40;99.90;;;;;;5027837;28;20079;-50
2021/11/08 14:16:12;;;;;;;5.38;1.50;;;9.50;99.90;;;;;;5027918;28;20095;-51
2021/11/08 14:18:38;;;;;;;3.42;1.67;;;9.50;99.90;;;;;;5029816;28;20493;-55
2021/11/08 14:21:07;;;;;;;3.40;1.52;;;9.50;99.90;;;;;;5029345;28;20113;-51
2021/11/08 14:23:33;;;;;;;3.85;1.65;;;9.50;99.90;;;;;;5027561;28;20013;-55
2021/11/08 14:26:10;;;;;;;3.58;1.50;;;9.50;99.90;;;;;;5029173;28;20483;-54
2021/11/08 14:28:35;;;;;;;2.72;1.67;;;9.50;99.90;;;;;;5028872;28;20022;-52
2021/11/08 14:31:01;;;;;;;6.03;1.23;;;9.50;99.90;;;;;;5028352;28;20092;-56
2021/11/08 14:33:28;;;;;;;3.45;1.50;;;9.50;99.90;;;;;;5029137;28;20060;-53
2021/11/08 14:35:53;;;;;;;4.70;1.70;;;9.50;99.90;;;;;;5028236;28;20030;-51
2021/11/08 14:38:35;;;;;;;3.55;1.27;;;9.50;99.90;;;;;;5027701;28;20455;-53
2021/11/08 14:41:08;;;;;;;1.80;0.77;;;9.50;99.90;;;;;;5026950;28;20029;-56
2021/11/08 14:43:34;;;;;;;4.35;0.80;;;9.50;99.90;;;;;;5027683;28;20026;-55
2021/11/08 14:46:03;;;;;;;1.73;1.00;;;9.50;99.90;;;;;;5025547;28;20029;-51
2021/11/08 14:48:31;;;;;;;2.97;1.00;;;9.50;99.90;;;;;;5026827;28;20057;-52